CSUN Campus Station - National Weather Service Data Page - PST Time




                Date      RH     Dew  Seasonal     Current   Max Air   Min Air    Wind    Wind    Wind    Gust     Bar    Rain
                Time       %   Point      Rain    Air Temp     Since     Since   Speed    Gust     Dir     Dir   Press   Total
                               Deg F    Inches       Deg F  Midnight  Midnight     MPH     MPH                      mb  Inches
------------------------------------------------------------------------------------------------------------------------------
    05/25/2016 00:00      78    47.5      9.20        54.4      68.8      54.1       0       1      48      64    1016    0.00
    05/25/2016 00:10      78    47.5      9.20        54.2      54.4      54.0       0       1      24      29    1016    0.00
    05/25/2016 00:20      79    47.5      9.20        54.0      54.4      53.8       0       0       0      34    1016    0.00
    05/25/2016 00:30      80    47.2      9.20        53.5      54.4      53.2       1       3     163     147    1016    0.00
    05/25/2016 00:40      79    47.6      9.20        53.9      54.4      53.2       1       3     205     191    1016    0.00
    05/25/2016 00:50      78    47.5      9.20        54.0      54.4      53.2       3       5     205     202    1016    0.00
    05/25/2016 01:00      78    47.1      9.20        53.9      54.4      53.2       1       5     227     256    1016    0.00
    05/25/2016 01:10      77    47.1      9.20        54.0      54.4      53.2       2       5     244     258    1016    0.00
    05/25/2016 01:20      77    47.1      9.20        54.2      54.4      53.2       0       3     257     258    1016    0.00
    05/25/2016 01:30      77    47.2      9.20        54.4      54.6      53.2       0       1     274     275    1016    0.00
    05/25/2016 01:40      76    47.0      9.20        54.3      54.6      53.2       0       1     297     328    1016    0.00
    05/25/2016 01:50      77    47.0      9.20        54.2      54.6      53.2       0       2     252     247    1016    0.00
    05/25/2016 02:00      76    47.2      9.20        54.4      54.8      53.2       2       4     246     254    1016    0.00
    05/25/2016 02:10      75    47.1      9.20        54.7      54.9      53.2       0       3     277     297    1016    0.00
    05/25/2016 02:20      75    47.0      9.20        54.6      54.9      53.2       0       1     274     264    1016    0.00
    05/25/2016 02:30      76    46.9      9.20        54.4      54.9      53.2       0       0       0     287    1016    0.00
    05/25/2016 02:40      77    46.7      9.20        54.0      54.9      53.2       0       2     151     148    1016    0.00
    05/25/2016 02:50      78    46.7      9.20        53.6      54.9      53.2       0       1     160     162    1016    0.00
    05/25/2016 03:00      78    46.9      9.20        53.6      54.9      53.2       0       0       0     158    1016    0.00
    05/25/2016 03:10      77    47.4      9.20        54.1      54.9      53.2       2       3     171     189    1016    0.00
    05/25/2016 03:20      76    47.3      9.20        54.5      54.9      53.2       1       2     161     172    1016    0.00
    05/25/2016 03:30      76    47.2      9.20        54.5      54.9      53.2       0       2     195     218    1016    0.00
    05/25/2016 03:40      76    47.1      9.20        54.6      54.9      53.2       0       2     161     162    1016    0.00
    05/25/2016 03:50      75    47.0      9.20        54.7      54.9      53.2       0       0       0     179    1016    0.00
    05/25/2016 04:00      75    47.0      9.20        54.8      54.9      53.2       0       0       0     179    1016    0.00
    05/25/2016 04:10      75    47.1      9.20        54.9      55.1      53.2       0       0      68      61    1016    0.00
    05/25/2016 04:20      74    47.1      9.20        55.1      55.2      53.2       0       0       0      63    1016    0.00
    05/25/2016 04:30      75    47.2      9.20        55.1      55.3      53.2       0       1     172     180    1016    0.00
    05/25/2016 04:40      75    47.3      9.20        55.0      55.3      53.2       0       1     161     160    1016    0.00
    05/25/2016 04:50      75    47.3      9.20        55.1      55.4      53.2       0       2      86      79    1016    0.00
    05/25/2016 05:00      75    47.3      9.20        55.1      55.4      53.2       0       1      59      48    1016    0.00
    05/25/2016 05:10      75    47.4      9.20        55.0      55.4      53.2       0       1      69      83    1016    0.00
    05/25/2016 05:20      75    47.5      9.20        55.2      55.4      53.2       0       1      69     104    1016    0.00
    05/25/2016 05:30      75    47.4      9.20        55.2      55.4      53.2       0       2     143     150    1016    0.00
    05/25/2016 05:40      76    47.3      9.20        54.8      55.4      53.2       0       1     154     156    1016    0.00
    05/25/2016 05:50      77    47.4      9.20        54.8      55.4      53.2       0       0       0     153    1016    0.00
    05/25/2016 06:00      77    47.7      9.20        54.8      55.4      53.2       0       0       0     162    1016    0.00
    05/25/2016 06:10      75    48.0      9.20        55.3      55.8      53.2       0       0      48      47    1016    0.00
    05/25/2016 06:20      73    48.0      9.20        56.1      56.5      53.2       0       1      35      19    1016    0.00
    05/25/2016 06:30      72    47.8      9.20        56.5      56.8      53.2       0       1     342     319    1017    0.00
    05/25/2016 06:40      71    47.8      9.20        57.0      57.2      53.2       0       1      36      47    1017    0.00
    05/25/2016 06:50      71    47.8      9.20        57.2      57.5      53.2       0       2      77      88    1017    0.00
    05/25/2016 07:00      69    47.9      9.20        57.5      57.8      53.2       0       0      50      44    1017    0.00
    05/25/2016 07:10      70    47.5      9.20        57.4      57.8      53.2       0       2     115     153    1017    0.00
    05/25/2016 07:20      69    47.7      9.20        57.6      57.9      53.2       0       2     149     139    1017    0.00
    05/25/2016 07:30      69    47.7      9.20        57.9      58.1      53.2       0       3     219     175    1017    0.00
    05/25/2016 07:40      67    47.4      9.20        58.1      58.2      53.2       1       3     139     144    1017    0.00
    05/25/2016 07:50      67    47.2      9.20        58.1      58.4      53.2       0       2      35      30    1017    0.00
    05/25/2016 08:00      67    47.4      9.20        58.5      58.7      53.2       0       4     155     158    1017    0.00
    05/25/2016 08:10      66    47.5      9.20        58.5      58.8      53.2       1       3     113     157    1017    0.00
    05/25/2016 08:20      64    46.9      9.20        58.8      59.0      53.2       0       3     105     101    1017    0.00
    05/25/2016 08:30      63    46.7      9.20        59.1      59.5      53.2       0       2      44     155    1017    0.00
    05/25/2016 08:40      63    46.4      9.20        59.3      59.7      53.2       1       3     117      94    1017    0.00
    05/25/2016 08:50      60    46.7      9.20        60.1      60.5      53.2       0       3     162     172    1017    0.00
    05/25/2016 09:00      59    45.8      9.20        60.1      60.5      53.2       2       5     173     164    1017    0.00
    05/25/2016 09:10      56    45.7      9.20        60.4      61.0      53.2       0       1     166     307    1017    0.00
    05/25/2016 09:20      56    44.8      9.20        60.8      61.1      53.2       1       4     256     271    1017    0.00
    05/25/2016 09:30      55    44.7      9.20        61.0      61.3      53.2       0       3     257     207    1017    0.00
    05/25/2016 09:40      54    45.0      9.20        61.5      61.8      53.2       1       4     192     189    1017    0.00
    05/25/2016 09:50      54    44.6      9.20        61.4      61.8      53.2       2       5     183     194    1017    0.00
    05/25/2016 10:00      52    44.5      9.20        61.8      62.4      53.2       0       2     128     306    1017    0.00
    05/25/2016 10:10      50    44.6      9.20        62.6      63.0      53.2       2       6     168     146    1017    0.00
    05/25/2016 10:20      49    43.5      9.20        62.3      63.0      53.2       0       6     199     202    1017    0.00
    05/25/2016 10:30      50    43.5      9.20        62.6      63.1      53.2       2       5     183     199    1018    0.00
    05/25/2016 10:40      49    42.9      9.20        62.5      63.1      53.2       0       2     245     181    1018    0.00
    05/25/2016 10:50      48    43.4      9.20        62.8      63.6      53.2       2       6     157     139    1018    0.00
    05/25/2016 11:00      47    43.5      9.20        63.8      64.0      53.2       2       5     130      98    1018    0.00
    05/25/2016 11:10      48    43.7      9.20        64.1      64.5      53.2       1       5     111      84    1017    0.00
    05/25/2016 11:20      47    43.8      9.20        64.0      64.5      53.2       1       4      84      68    1017    0.00
    05/25/2016 11:30      49    44.6      9.20        64.5      65.1      53.2       2       6      58      79    1017    0.00
    05/25/2016 11:40      49    45.4      9.20        64.9      65.3      53.2       3       7     110     146    1017    0.00
    05/25/2016 11:50      48    45.3      9.20        65.4      66.2      53.2       4       9      85     115    1017    0.00
    05/25/2016 12:00      45    45.7      9.20        66.5      67.0      53.2       4       8     143      88    1017    0.00
    05/25/2016 12:10      46    44.7      9.20        66.3      67.0      53.2       4      10     101     181    1017    0.00
    05/25/2016 12:20      47    45.2      9.20        66.7      67.5      53.2       4       8     118     160    1017    0.00
    05/25/2016 12:30      43    44.9      9.20        67.8      68.5      53.2       5      10      92      78    1017    0.00
    05/25/2016 12:40      41    44.1      9.20        67.7      68.5      53.2       4      10     122     143    1017    0.00
    05/25/2016 12:50      44    43.3      9.20        66.4      68.5      53.2       2      10     172     167    1017    0.00
    05/25/2016 13:00      45    43.7      9.20        66.3      68.5      53.2       4      10     108      99    1017    0.00
    05/25/2016 13:10      45    44.5      9.20        66.3      68.5      53.2       4       8      93      95    1017    0.00
    05/25/2016 13:20      44    45.0      9.20        67.4      68.5      53.2       4      10     105     136    1017    0.00
    05/25/2016 13:30      44    44.7      9.20        67.0      68.5      53.2       3       9     113     123    1017    0.00
    05/25/2016 13:40      44    45.0      9.20        68.0      69.0      53.2       4       8     149     150    1017    0.00
    05/25/2016 13:50      41    43.6      9.20        67.9      69.0      53.2       4      10     121     134    1017    0.00
    05/25/2016 14:00      42    42.7      9.20        66.5      69.0      53.2       3       7     194     189    1016    0.00
    05/25/2016 14:10      42    42.5      9.20        66.7      69.0      53.2       5       8     165     188    1016    0.00
    05/25/2016 14:20      38    41.0      9.20        67.3      69.0      53.2       3      10     268     186    1016    0.00
    05/25/2016 14:30      37    40.7      9.20        66.9      69.0      53.2       2       5     185     214    1016    0.00
    05/25/2016 14:40      36    40.3      9.20        68.4      69.0      53.2       2       6     103     297    1016    0.00
    05/25/2016 14:50      35    40.3      9.20        68.5      69.0      53.2       5       9     173     166    1016    0.00
    05/25/2016 15:00      35    40.2      9.20        69.1      69.6      53.2       5       9     149     166    1016    0.00
    05/25/2016 15:10      35    39.9      9.20        68.6      69.6      53.2       6      10     145     161    1016    0.00
    05/25/2016 15:20      34    39.8      9.20        69.1      70.0      53.2       4       9     129     168    1016    0.00
    05/25/2016 15:30      35    39.6      9.20        69.1      70.0      53.2       6      12     159     170    1016    0.00
    05/25/2016 15:40      34    39.6      9.20        68.9      70.0      53.2       6      11     182     167    1016    0.00
    05/25/2016 15:50      32    39.1      9.20        68.9      70.0      53.2       6      10     151     187    1016    0.00
    05/25/2016 16:00      34    39.3      9.20        69.6      70.6      53.2       4       9     160     148    1016    0.00
    05/25/2016 16:10      34    39.5      9.20        69.2      70.6      53.2       4       9     193     199    1016    0.00
    05/25/2016 16:20      37    40.0      9.20        69.0      70.6      53.2       5       9     211     236    1016    0.00
    05/25/2016 16:30      37    41.2      9.20        68.0      70.6      53.2       6      11     196     192    1016    0.00
    05/25/2016 16:40      42    42.8      9.20        68.1      70.6      53.2       4       9     203     122    1016    0.00
    05/25/2016 16:50      41    43.8      9.20        68.2      70.6      53.2       4       8     224     188    1016    0.00
    05/25/2016 17:00      43    44.5      9.20        68.3      70.6      53.2       4      10     263     245    1016    0.00
    05/25/2016 17:10      43    44.8      9.20        67.9      70.6      53.2       4       8     271     260    1016    0.00
    05/25/2016 17:20      44    44.8      9.20        67.9      70.6      53.2       4      10     266     264    1016    0.00
    05/25/2016 17:30      47    45.2      9.20        67.1      70.6      53.2       4      10     267     250    1016    0.00
    05/25/2016 17:40      48    45.7      9.20        66.1      70.6      53.2       4      10     274     266    1016    0.00
    05/25/2016 17:50      50    46.0      9.20        65.7      70.6      53.2       5       9     257     248    1016    0.00
    05/25/2016 18:00      50    45.9      9.20        65.1      70.6      53.2       4      10     254     251    1016    0.00
    05/25/2016 18:10      51    46.0      9.20        64.7      70.6      53.2       4       8     247     247    1016    0.00
    05/25/2016 18:20      53    46.4      9.20        64.3      70.6      53.2       3       7     270     301    1016    0.00
    05/25/2016 18:30      54    46.5      9.20        63.9      70.6      53.2       3       7     260     249    1016    0.00
    05/25/2016 18:40      55    46.5      9.20        63.2      70.6      53.2       2       6     240     264    1016    0.00
    05/25/2016 18:50      56    46.7      9.20        62.8      70.6      53.2       0       3     229     255    1016    0.00
    05/25/2016 19:00      57    46.7      9.20        62.3      70.6      53.2       0       2     294     290    1016    0.00
    05/25/2016 19:10      57    46.7      9.20        62.1      70.6      53.2       0       1     327     336    1016    0.00
    05/25/2016 19:20      58    46.8      9.20        61.8      70.6      53.2       0       2     275     311    1016    0.00
    05/25/2016 19:30      59    46.3      9.20        61.1      70.6      53.2       0       2     216     206    1016    0.00
    05/25/2016 19:40      60    46.2      9.20        60.5      70.6      53.2       2       5     213     213    1016    0.00
    05/25/2016 19:50      59    46.0      9.20        60.3      70.6      53.2       0       0       0     318    1016    0.00
    05/25/2016 20:00      60    46.3      9.20        60.4      70.6      53.2       2       7      73      81    1016    0.00
    05/25/2016 20:10      63    47.3      9.20        60.5      70.6      53.2       4       7      68      77    1017    0.00
    05/25/2016 20:20      64    47.6      9.20        59.9      70.6      53.2       3       6      71      78    1017    0.00
    05/25/2016 20:30      65    47.6      9.20        59.5      70.6      53.2       2       5      70      74    1017    0.00
    05/25/2016 20:40      65    47.5      9.20        59.3      70.6      53.2       4       9      67      81    1017    0.00
    05/25/2016 20:50      65    47.5      9.20        59.1      70.6      53.2       3       7      77      63    1017    0.00
    05/25/2016 21:00      65    47.4      9.20        59.1      70.6      53.2       4       6      72      88    1017    0.00
    05/25/2016 21:10      66    47.4      9.20        59.0      70.6      53.2       3       8      80      75    1017    0.00
    05/25/2016 21:20      66    47.4      9.20        58.8      70.6      53.2       3       7      82     122    1017    0.00
    05/25/2016 21:30      67    47.5      9.20        58.4      70.6      53.2       4       7      83      75    1017    0.00
    05/25/2016 21:40      68    47.6      9.20        58.2      70.6      53.2       3       8      74      73    1017    0.00
    05/25/2016 21:50      68    47.5      9.20        58.0      70.6      53.2       3       7      63      63    1017    0.00
    05/25/2016 22:00      68    47.4      9.20        57.8      70.6      53.2       3       5      58      12    1017    0.00
    05/25/2016 22:10      69    47.3      9.20        57.6      70.6      53.2       2       5      76      94    1017    0.00
    05/25/2016 22:20      69    47.2      9.20        57.4      70.6      53.2       2       5      64      54    1017    0.00
    05/25/2016 22:30      69    47.1      9.20        57.1      70.6      53.2       2       5      76      90    1017    0.00
    05/25/2016 22:40      70    47.0      9.20        56.9      70.6      53.2       1       4      66      71    1017    0.00
    05/25/2016 22:50      71    46.8      9.20        56.5      70.6      53.2       0       2      62      38    1017    0.00
    05/25/2016 23:00      72    47.2      9.20        56.3      70.6      53.2       1       3      44      61    1017    0.00
    05/25/2016 23:10      72    47.4      9.20        56.3      70.6      53.2       2       4      37      41    1017    0.00
    05/25/2016 23:20      72    47.4      9.20        56.3      70.6      53.2       2       4      30      58    1017    0.00
    05/25/2016 23:30      72    47.3      9.20        56.2      70.6      53.2       1       3      29      46    1017    0.00
    05/25/2016 23:40      73    47.1      9.20        55.9      70.6      53.2       0       3      27      43    1017    0.00
    05/25/2016 23:50      73    47.3      9.20        55.8      70.6      53.2       1       4      22      20    1017    0.00
    05/26/2016 00:00      73    47.5      9.20        55.8      70.6      53.2       1       4      66      67    1016    0.00
    05/26/2016 00:10      74    47.6      9.20        55.8      56.0      55.6       0       3      58      78    1017    0.00
    05/26/2016 00:20      74    47.6      9.20        55.6      56.0      55.4       2       3      43      40    1016    0.00
    05/26/2016 00:30      74    47.5      9.20        55.5      56.0      55.4       0       3      30       6    1016    0.00
    05/26/2016 00:40      74    47.3      9.20        55.3      56.0      55.1       1       4      40      53    1016    0.00
    05/26/2016 00:50      74    47.1      9.20        55.2      56.0      55.0       2       4      22      33    1016    0.00
    05/26/2016 01:00      75    47.1      9.20        55.0      56.0      54.7       2       3      28      41    1016    0.00
    05/26/2016 01:10      75    47.2      9.20        55.0      56.0      54.7       2       4      47      54    1016    0.00
    05/26/2016 01:20      75    47.1      9.20        54.9      56.0      54.7       2       4      50      68    1016    0.00
    05/26/2016 01:30      75    47.1      9.20        54.9      56.0      54.7       1       4      65      30    1016    0.00
    05/26/2016 01:40      76    47.2      9.20        54.8      56.0      54.5       2       5      67      76    1016    0.00
    05/26/2016 01:50      77    47.4      9.20        54.7      56.0      54.5       2       6      65      68    1016    0.00
    05/26/2016 02:00      77    47.4      9.20        54.6      56.0      54.3       3       5      58      51    1016    0.00
    05/26/2016 02:10      77    47.3      9.20        54.5      56.0      54.3       2       4      40      44    1016    0.00
    05/26/2016 02:20      77    47.2      9.20        54.3      56.0      54.0       2       3      34      37    1016    0.00
    05/26/2016 02:30      77    47.2      9.20        54.1      56.0      54.0       3       4      42      48    1016    0.00
    05/26/2016 02:40      76    46.9      9.20        54.0      56.0      53.8       2       4      28      73    1016    0.00
    05/26/2016 02:50      76    46.6      9.20        53.9      56.0      53.7       2       3      46      62    1016    0.00
    05/26/2016 03:00      76    46.6      9.20        53.9      56.0      53.7       2       4      31      41    1016    0.00
    05/26/2016 03:10      76    46.6      9.20        54.0      56.0      53.7       1       4      23      34    1016    0.00
    05/26/2016 03:20      75    47.3      9.20        54.5      56.0      53.7       2       5      45      74    1016    0.00
    05/26/2016 03:30      75    46.7      9.20        54.5      56.0      53.7       2       4      41      40    1016    0.00
    05/26/2016 03:40      76    47.3      9.20        54.8      56.0      53.7       2       3      48      34    1016    0.00
    05/26/2016 03:50      77    47.6      9.20        54.8      56.0      53.7       0       2      53      88    1016    0.00
    05/26/2016 04:00      77    47.9      9.20        54.9      56.0      53.7       0       2      70      39    1016    0.00
    05/26/2016 04:10      78    47.7      9.20        54.5      56.0      53.7       0       1      91      96    1016    0.00
    05/26/2016 04:20      79    47.5      9.20        54.0      56.0      53.7       0       0       0     106    1016    0.00
    05/26/2016 04:30      80    47.5      9.20        53.7      56.0      53.5       0       0       0     216    1016    0.00
    05/26/2016 04:40      81    47.7      9.20        53.6      56.0      53.4       0       0       0     250    1016    0.00
    05/26/2016 04:50      82    47.9      9.20        53.6      56.0      53.4       0       2     171     198    1016    0.00
    05/26/2016 05:00      81    48.8      9.20        54.3      56.0      53.4       0       2     156     171    1016    0.00
    05/26/2016 05:10      80    48.8      9.20        54.7      56.0      53.4       0       2      57     343    1017    0.00
    05/26/2016 05:20      79    48.7      9.20        54.9      56.0      53.4       0       0      10       5    1017    0.00
    05/26/2016 05:30      78    48.7      9.20        55.1      56.0      53.4       0       2     126     139    1017    0.00
    05/26/2016 05:40      77    48.6      9.20        55.3      56.0      53.4       0       2     145      65    1017    0.00
    05/26/2016 05:50      77    48.3      9.20        55.3      56.0      53.4       0       0     331     322    1017    0.00
    05/26/2016 06:00      76    48.2      9.20        55.6      56.0      53.4       0       3       3     339    1017    0.00
    05/26/2016 06:10      75    48.1      9.20        55.9      56.0      53.4       2       3      73      67    1017    0.00
    05/26/2016 06:20      74    47.9      9.20        55.9      56.1      53.4       2       4      69      53    1017    0.00
    05/26/2016 06:30      72    47.6      9.20        56.1      56.4      53.4       2       4      99     133    1017    0.00
    05/26/2016 06:40      72    47.7      9.20        56.4      56.7      53.4       2       4     118      96    1017    0.00
    05/26/2016 06:50      71    47.5      9.20        56.7      57.0      53.4       2       4     104      89    1017    0.00
    05/26/2016 07:00      68    47.7      9.20        57.3      58.1      53.4       1       4      80      90    1017    0.00
    05/26/2016 07:10      67    47.6      9.20        58.4      58.8      53.4       2       5      61      83    1017    0.00
    05/26/2016 07:20      65    47.7      9.20        59.2      59.7      53.4       2       4      62      82    1017    0.00
    05/26/2016 07:30      63    48.0      9.20        60.2      60.6      53.4       2       4     181     196    1017    0.00
    05/26/2016 07:40      64    48.0      9.20        60.6      60.9      53.4       2       4     228     190    1017    0.00
    05/26/2016 07:50      62    47.8      9.20        60.4      60.9      53.4       4       9     162     169    1017    0.00
    05/26/2016 08:00      59    47.5      9.20        60.8      61.7      53.4       3       6     141     150    1017    0.00
    05/26/2016 08:10      60    47.1      9.20        61.5      62.0      53.4       1       4     162     146    1017    0.00
    05/26/2016 08:20      58    47.0      9.20        62.3      62.8      53.4       2       6      76      96    1017    0.00
    05/26/2016 08:30      56    47.3      9.20        62.5      63.3      53.4       1       8     152     155    1017    0.00
    05/26/2016 08:40      55    47.0      9.20        62.8      63.7      53.4       2       5      87      94    1017    0.00
    05/26/2016 08:50      53    46.9      9.20        63.5      64.2      53.4       2       6     121     125    1017    0.00
    05/26/2016 09:00      54    46.4      9.20        64.0      64.3      53.4       2       4     101      89    1017    0.00
    05/26/2016 09:10      52    46.8      9.20        63.9      64.9      53.4       0       4     193      91    1017    0.00
    05/26/2016 09:20      56    46.8      9.20        64.3      64.9      53.4       2       6     272     190    1017    0.00
    05/26/2016 09:30      52    47.3      9.20        64.5      65.2      53.4       4       7     210     143    1016    0.00
    05/26/2016 09:40      49    47.3      9.20        65.7      66.4      53.4       3       6     156     168    1016    0.00
    05/26/2016 09:50      49    46.6      9.20        66.6      66.9      53.4       2       7     215     200    1016    0.00
    05/26/2016 10:00      49    46.8      9.20        66.4      67.0      53.4       3       6     200     180    1016    0.00
    05/26/2016 10:10      48    46.3      9.20        67.1      68.0      53.4       3       8     122     172    1016    0.00
    05/26/2016 10:20      45    45.8      9.20        67.0      68.0      53.4       2       4     153     179    1016    0.00
    05/26/2016 10:30      47    46.2      9.20        68.0      68.6      53.4       2       5     169     171    1016    0.00
    05/26/2016 10:40      48    46.1      9.20        68.1      68.8      53.4       3       8     258     216    1016    0.00
    05/26/2016 10:50      44    46.6      9.20        68.3      68.9      53.4       4       8     197     187    1016    0.00
    05/26/2016 11:00      43    45.9      9.20        69.1      70.0      53.4       2       6     115      71    1016    0.00
    05/26/2016 11:10      42    46.4      9.20        70.2      70.6      53.4       4       9     155     193    1016    0.00
    05/26/2016 11:20      40    46.1      9.20        71.1      72.2      53.4       1       4     174     163    1016    0.00
    05/26/2016 11:30      41    46.3      9.20        71.9      72.5      53.4       2       7     128     190    1016    0.00
    05/26/2016 11:40      40    46.4      9.20        71.4      72.5      53.4       3       9     126     182    1015    0.00
    05/26/2016 11:50      42    46.5      9.20        72.5      73.4      53.4       3       8     108     130    1015    0.00
    05/26/2016 12:00      36    47.4      9.20        73.4      74.3      53.4       4       7     145     177    1015    0.00
    05/26/2016 12:10      39    48.0      9.20        74.1      74.5      53.4       5       9     167     188    1015    0.00
    05/26/2016 12:20      36    47.5      9.20        75.0      75.6      53.4       4      10     120     148    1015    0.00
    05/26/2016 12:30      38    48.5      9.20        74.8      75.6      53.4       5       9     151     168    1015    0.00
    05/26/2016 12:40      38    48.0      9.20        75.2      75.6      53.4       4      10     130     155    1015    0.00
    05/26/2016 12:50      40    48.4      9.20        73.8      75.6      53.4       6      12     132     141    1015    0.00
    05/26/2016 13:00      40    47.8      9.20        74.3      75.6      53.4       6      11      99      91    1015    0.00
    05/26/2016 13:10      39    48.4      9.20        74.0      75.6      53.4       6      13     117     156    1014    0.00
    05/26/2016 13:20      39    48.4      9.20        74.7      75.6      53.4       5      10     137     165    1014    0.00
    05/26/2016 13:30      40    48.2      9.20        74.2      75.6      53.4       5      12     125     149    1014    0.00
    05/26/2016 13:40      39    48.2      9.20        74.0      75.6      53.4       5      10     125      79    1014    0.00
    05/26/2016 13:50      40    48.6      9.20        73.9      75.6      53.4       6      12     149     164    1014    0.00
    05/26/2016 14:00      41    48.4      9.20        74.5      75.6      53.4       6      12     145     155    1014    0.00
    05/26/2016 14:10      41    48.1      9.20        73.5      75.6      53.4       5      10     122     136    1014    0.00
    05/26/2016 14:20      41    48.0      9.20        73.5      75.6      53.4       5      11     121      73    1014    0.00
    05/26/2016 14:30      40    48.0      9.20        73.3      75.6      53.4       5       9     107     178    1014    0.00
    05/26/2016 14:40      41    48.1      9.20        73.8      75.6      53.4       5      11     110      73    1014    0.00
    05/26/2016 14:50      39    48.1      9.20        74.3      75.6      53.4       4      10     112     141    1013    0.00
    05/26/2016 15:00      39    48.1      9.20        74.3      75.6      53.4       4      11     110     147    1013    0.00
    05/26/2016 15:10      39    47.9      9.20        73.9      75.6      53.4       4      10     113      87    1013    0.00
    05/26/2016 15:20      40    48.4      9.20        74.0      75.6      53.4       5      10     147     129    1013    0.00
    05/26/2016 15:30      40    48.1      9.20        73.7      75.6      53.4       6      10     129     141    1013    0.00
    05/26/2016 15:40      41    48.3      9.20        74.0      75.6      53.4       4       9     145     173    1013    0.00
    05/26/2016 15:50      40    48.1      9.20        74.2      75.6      53.4       5       9     127     121    1013    0.00
    05/26/2016 16:00      40    47.9      9.20        73.3      75.6      53.4       4       9     109      98    1013    0.00
    05/26/2016 16:10      41    47.9      9.20        73.3      75.6      53.4       4      10     116      83    1013    0.00
    05/26/2016 16:20      39    48.0      9.20        73.6      75.6      53.4       4       9     123     129    1013    0.00
    05/26/2016 16:30      41    47.8      9.20        72.9      75.6      53.4       5      12     106      86    1013    0.00
    05/26/2016 16:40      42    48.0      9.20        72.7      75.6      53.4       4      10     126     148    1013    0.00
    05/26/2016 16:50      43    47.9      9.20        72.3      75.6      53.4       4       9      86      87    1013    0.00
    05/26/2016 17:00      44    48.1      9.20        71.5      75.6      53.4       4       8     105      81    1013    0.00
    05/26/2016 17:10      43    48.2      9.20        71.7      75.6      53.4       4       7     121      86    1013    0.00
    05/26/2016 17:20      44    48.2      9.20        71.6      75.6      53.4       3       7     121     108    1013    0.00
    05/26/2016 17:30      46    48.3      9.20        70.7      75.6      53.4       5       9      99      99    1013    0.00
    05/26/2016 17:40      47    48.5      9.20        70.0      75.6      53.4       4       8      96      96    1013    0.00
    05/26/2016 17:50      48    48.4      9.20        69.5      75.6      53.4       4       8     106      99    1013    0.00
    05/26/2016 18:00      49    48.6      9.20        68.9      75.6      53.4       3       7     104      89    1013    0.00
    05/26/2016 18:10      50    48.7      9.20        68.0      75.6      53.4       3       8     113      92    1013    0.00
    05/26/2016 18:20      51    48.7      9.20        67.7      75.6      53.4       3       7     104      92    1013    0.00
    05/26/2016 18:30      51    48.6      9.20        67.1      75.6      53.4       3       7     101     133    1013    0.00
    05/26/2016 18:40      53    48.4      9.20        66.4      75.6      53.4       3       8     111      71    1013    0.00
    05/26/2016 18:50      54    48.3      9.20        65.8      75.6      53.4       3       6      91      86    1013    0.00
    05/26/2016 19:00      54    48.2      9.20        65.2      75.6      53.4       2       5     102      92    1013    0.00
    05/26/2016 19:10      55    48.1      9.20        64.9      75.6      53.4       3       7      85      67    1013    0.00
    05/26/2016 19:20      55    47.8      9.20        64.5      75.6      53.4       4       7      86      56    1013    0.00
    05/26/2016 19:30      55    47.6      9.20        64.1      75.6      53.4       3       7      86      93    1013    0.00
    05/26/2016 19:40      56    47.5      9.20        63.4      75.6      53.4       4       8      76      75    1013    0.00
    05/26/2016 19:50      57    47.5      9.20        63.0      75.6      53.4       4       7      76      92    1013    0.00
    05/26/2016 20:00      57    47.5      9.20        62.9      75.6      53.4       2       5      75      67    1013    0.00
    05/26/2016 20:10      57    47.3      9.20        62.7      75.6      53.4       3       5      75      71    1013    0.00
    05/26/2016 20:20      58    47.2      9.20        62.4      75.6      53.4       3       6      83      63    1013    0.00
    05/26/2016 20:30      58    47.1      9.20        62.2      75.6      53.4       4       7      67      49    1013    0.00
    05/26/2016 20:40      58    47.1      9.20        61.9      75.6      53.4       3       6      74      66    1014    0.00
    05/26/2016 20:50      59    47.2      9.20        61.8      75.6      53.4       3       5      73      54    1014    0.00
    05/26/2016 21:00      60    47.3      9.20        61.5      75.6      53.4       2       5      65      44    1014    0.00
    05/26/2016 21:10      60    47.3      9.20        61.2      75.6      53.4       3       5      65      86    1014    0.00
    05/26/2016 21:20      61    47.4      9.20        61.0      75.6      53.4       2       4      71      93    1014    0.00
    05/26/2016 21:30      62    47.4      9.20        60.8      75.6      53.4       2       4      71      69    1014    0.00
    05/26/2016 21:40      62    47.5      9.20        60.5      75.6      53.4       2       5      78      53    1014    0.00
    05/26/2016 21:50      64    47.7      9.20        60.3      75.6      53.4       0       3      93      77    1014    0.00
    05/26/2016 22:00      64    47.8      9.20        60.1      75.6      53.4       2       4      79      83    1014    0.00
    05/26/2016 22:10      64    47.8      9.20        59.9      75.6      53.4       3       5      75      66    1014    0.00
    05/26/2016 22:20      65    47.8      9.20        59.6      75.6      53.4       3       7      69      62    1014    0.00
    05/26/2016 22:30      66    47.9      9.20        59.3      75.6      53.4       2       4      70      63    1014    0.00
    05/26/2016 22:40      68    48.1      9.20        59.0      75.6      53.4       1       3      70      50    1014    0.00
    05/26/2016 22:50      68    48.2      9.20        58.8      75.6      53.4       3       5      76      57    1014    0.00
    05/26/2016 23:00      69    48.4      9.20        58.5      75.6      53.4       2       3      60      43    1014    0.00
    05/26/2016 23:10      70    48.5      9.20        58.3      75.6      53.4       2       5      46      58    1014    0.00
    05/26/2016 23:20      70    48.5      9.20        58.2      75.6      53.4       3       5      58      65    1014    0.00
    05/26/2016 23:30      70    48.5      9.20        58.1      75.6      53.4       2       4      47      64    1014    0.00
    05/26/2016 23:40      71    48.5      9.20        58.0      75.6      53.4       3       4      42      59    1014    0.00
    05/26/2016 23:50      71    48.4      9.20        57.8      75.6      53.4       2       4      41      31    1014    0.00
    05/27/2016 00:00      71    48.3      9.20        57.6      75.6      53.4       1       3      37      16    1014    0.00
    05/27/2016 00:10      72    48.4      9.20        57.5      57.7      57.3       2       4      43      34    1014    0.00
    05/27/2016 00:20      71    48.4      9.20        57.5      57.7      57.3       1       3      57      35    1014    0.00
    05/27/2016 00:30      72    48.4      9.20        57.4      57.7      57.2       1       2      57      59    1014    0.00
    05/27/2016 00:40      72    48.4      9.20        57.4      57.7      57.2       2       4      46      40    1014    0.00
    05/27/2016 00:50      72    48.2      9.20        57.2      57.7      56.8       0       2      28      45    1014    0.00
    05/27/2016 01:00      74    48.0      9.20        56.6      57.7      56.0       0       0      42      53    1014    0.00
    05/27/2016 01:10      76    48.0      9.20        56.0      57.7      55.6       0       0       0      71    1014    0.00
    05/27/2016 01:20      77    48.0      9.20        55.4      57.7      55.1       0       0       0     134    1013    0.00
    05/27/2016 01:30      78    48.1      9.20        55.1      57.7      54.8       0       0     120     120    1013    0.00
    05/27/2016 01:40      78    48.4      9.20        55.1      57.7      54.8       0       0       0     114    1013    0.00
    05/27/2016 01:50      78    48.3      9.20        55.1      57.7      54.8       0       0       0      87    1013    0.00
    05/27/2016 02:00      78    48.5      9.20        55.2      57.7      54.8       0       0       0      81    1013    0.00
    05/27/2016 02:10      78    48.4      9.20        55.0      57.7      54.8       0       0       0      19    1013    0.00
    05/27/2016 02:20      79    48.2      9.20        54.7      57.7      54.5       0       0       0     355    1013    0.00
    05/27/2016 02:30      78    48.3      9.20        54.7      57.7      54.5       0       1      43      43    1013    0.00
    05/27/2016 02:40      78    48.2      9.20        54.9      57.7      54.5       0       1      22      18    1013    0.00
    05/27/2016 02:50      77    47.9      9.20        54.9      57.7      54.5       0       0       0     345    1013    0.00
    05/27/2016 03:00      78    47.5      9.20        54.5      57.7      53.9       0       0       0      25    1013    0.00
    05/27/2016 03:10      79    47.5      9.20        53.9      57.7      53.8       0       0     284     327    1013    0.00
    05/27/2016 03:20      78    47.4      9.20        54.0      57.7      53.7       0       0       0     320    1013    0.00
    05/27/2016 03:30      79    47.2      9.20        53.6      57.7      53.4       0       0     284     284    1013    0.00
    05/27/2016 03:40      79    47.4      9.20        53.6      57.7      53.4       0       0       0     296    1013    0.00
    05/27/2016 03:50      79    47.1      9.20        53.5      57.7      53.3       0       0       0     339    1013    0.00
    05/27/2016 04:00      80    47.0      9.20        53.3      57.7      53.0       0       0       0     339    1013    0.00
    05/27/2016 04:10      80    47.5      9.20        53.4      57.7      53.0       0       0      60      58    1013    0.00
    05/27/2016 04:20      81    47.5      9.20        53.4      57.7      53.0       0       0      76      87    1013    0.00
    05/27/2016 04:30      80    47.6      9.20        53.4      57.7      53.0       0       1      48      30    1013    0.00
    05/27/2016 04:40      80    47.3      9.20        53.2      57.7      53.0       0       0      45      45    1013    0.00
    05/27/2016 04:50      80    47.2      9.20        53.1      57.7      52.9       0       0     325     325    1013    0.00
    05/27/2016 05:00      80    47.3      9.20        53.2      57.7      52.9       0       0     349      -0    1013    0.00
    05/27/2016 05:10      80    47.3      9.20        53.3      57.7      52.9       0       1      57      84    1013    0.00
    05/27/2016 05:20      78    47.6      9.20        53.8      57.7      52.9       1       3      47      32    1013    0.00
    05/27/2016 05:30      77    47.6      9.20        54.4      57.7      52.9       2       3      36      56    1013    0.00
    05/27/2016 05:40      76    47.7      9.20        54.9      57.7      52.9       2       4      29      38    1013    0.00
    05/27/2016 05:50      76    48.0      9.20        55.5      57.7      52.9       2       5      62      60    1013    0.00
    05/27/2016 06:00      77    49.0      9.20        56.2      57.7      52.9       3       6      80     121    1013    0.00
    05/27/2016 06:10      79    49.7      9.20        56.5      57.7      52.9       3       7      85      64    1013    0.00
    05/27/2016 06:20      80    50.3      9.20        56.4      57.7      52.9       3       6      79      88    1013    0.00
    05/27/2016 06:30      78    50.6      9.20        57.0      57.7      52.9       2       4      98     144    1013    0.00
    05/27/2016 06:40      76    50.7      9.20        57.7      58.0      52.9       1       3     156     202    1013    0.00
    05/27/2016 06:50      77    50.4      9.20        57.7      58.0      52.9       1       4     170     152    1013    0.00
    05/27/2016 07:00      77    50.4      9.20        57.8      58.0      52.9       2       4     181     214    1013    0.00
    05/27/2016 07:10      76    50.7      9.20        58.2      58.5      52.9       2       4     184     204    1013    0.00
    05/27/2016 07:20      73    51.0      9.20        59.0      59.5      52.9       2       5     185     167    1013    0.00
    05/27/2016 07:30      70    50.8      9.20        59.6      60.4      52.9       2       5     223     243    1013    0.00
    05/27/2016 07:40      67    50.7      9.20        60.5      61.3      52.9       2       5     216     250    1013    0.00
    05/27/2016 07:50      70    50.4      9.20        60.7      61.3      52.9       2       4     289     238    1013    0.00
    05/27/2016 08:00      65    50.9      9.20        61.5      63.1      52.9       0       2     302     309    1013    0.00
    05/27/2016 08:10      65    50.6      9.20        62.6      63.3      52.9       1       4     233     201    1013    0.00
    05/27/2016 08:20      64    50.6      9.20        62.5      63.3      52.9       1       4     187     228    1013    0.00
    05/27/2016 08:30      65    50.7      9.20        62.8      63.3      52.9       2       4     234     171    1013    0.00
    05/27/2016 08:40      63    50.9      9.20        63.5      64.2      52.9       1       3     253     214    1013    0.00
    05/27/2016 08:50      59    51.4      9.20        65.3      66.2      52.9       2       5     133     184    1013    0.00
    05/27/2016 09:00      58    50.9      9.20        65.7      66.4      52.9       3       6     152     153    1013    0.00
    05/27/2016 09:10      57    50.7      9.20        65.7      66.4      52.9       1       5     173     162    1012    0.00
    05/27/2016 09:20      57    50.7      9.20        66.6      67.0      52.9       2       6     153     169    1012    0.00
    05/27/2016 09:30      54    50.1      9.20        66.3      67.2      52.9       1       3     359     140    1012    0.00
    05/27/2016 09:40      53    50.6      9.20        67.6      68.6      52.9       3       7      87      85    1012    0.00
    05/27/2016 09:50      51    50.4      9.20        68.2      69.3      52.9       2       6      69     158    1012    0.00
    05/27/2016 10:00      49    50.6      9.20        69.5      70.1      52.9       2       6     111     151    1012    0.00
    05/27/2016 10:10      50    50.6      9.20        69.3      70.7      52.9       1       5     173     109    1012    0.00
    05/27/2016 10:20      48    50.6      9.20        71.2      72.1      52.9       3       7     142     149    1012    0.00
    05/27/2016 10:30      44    50.4      9.20        71.7      73.1      52.9       2       5      99      71    1012    0.00
    05/27/2016 10:40      46    50.7      9.20        72.2      73.1      52.9       4       8     175     165    1012    0.00
    05/27/2016 10:50      45    50.2      9.20        71.7      73.1      52.9       2       5     181     189    1012    0.00
    05/27/2016 11:00      43    50.5      9.20        73.2      73.8      52.9       3       6      78      97    1011    0.00
    05/27/2016 11:10      44    50.3      9.20        73.4      74.2      52.9       3       8     158     185    1011    0.00
    05/27/2016 11:20      42    50.0      9.20        73.9      74.5      52.9       3       7      99      98    1011    0.00
    05/27/2016 11:30      41    50.0      9.20        74.2      74.7      52.9       3       7     135      91    1011    0.00
    05/27/2016 11:40      41    49.8      9.20        75.7      76.3      52.9       3       7     110      95    1011    0.00
    05/27/2016 11:50      40    49.1      9.20        75.7      76.6      52.9       3       7     117     135    1011    0.00
    05/27/2016 12:00      38    48.9      9.20        75.5      76.6      52.9       2       6     139      90    1011    0.00
    05/27/2016 12:10      37    48.1      9.20        76.5      77.1      52.9       3       8     113      92    1011    0.00
    05/27/2016 12:20      34    48.1      9.20        77.7      78.4      52.9       3       7     120     150    1010    0.00
    05/27/2016 12:30      36    48.5      9.20        78.3      79.1      52.9       3       8     126      81    1010    0.00
    05/27/2016 12:40      35    48.6      9.20        78.5      79.1      52.9       3       8      72      98    1010    0.00
    05/27/2016 12:50      34    48.5      9.20        78.2      79.4      52.9       3       8      79      65    1010    0.00
    05/27/2016 13:00      35    49.7      9.20        79.5      79.9      52.9       4       9     105      72    1010    0.00
    05/27/2016 13:10      36    49.7      9.20        79.1      80.2      52.9       4       9      95      66    1010    0.00
    05/27/2016 13:20      35    49.6      9.20        78.5      80.2      52.9       4       9      85      53    1010    0.00
    05/27/2016 13:30      36    49.3      9.20        78.5      80.2      52.9       3       7     129      95    1010    0.00
    05/27/2016 13:40      35    49.8      9.20        79.5      80.7      52.9       3       8     124      84    1009    0.00
    05/27/2016 13:50      35    49.6      9.20        79.9      80.8      52.9       5       9     117     147    1009    0.00
    05/27/2016 14:00      35    50.0      9.20        80.1      80.8      52.9       4       9     140     145    1009    0.00
    05/27/2016 14:10      35    49.7      9.20        80.1      80.8      52.9       4       9     107      86    1009    0.00
    05/27/2016 14:20      35    50.1      9.20        80.5      81.3      52.9       5      10     140      85    1009    0.00
    05/27/2016 14:30      34    50.1      9.20        80.8      81.3      52.9       3       9     126     103    1009    0.00
    05/27/2016 14:40      34    50.3      9.20        80.9      81.6      52.9       5      10     119     150    1009    0.00
    05/27/2016 14:50      35    50.2      9.20        81.1      81.7      52.9       5       8     123     121    1009    0.00
    05/27/2016 15:00      36    50.8      9.20        80.4      81.7      52.9       5      10     136     140    1009    0.00
    05/27/2016 15:10      36    50.7      9.20        80.0      81.7      52.9       4       8     122     143    1009    0.00
    05/27/2016 15:20      38    50.8      9.20        79.1      81.7      52.9       5      13     136     162    1009    0.00
    05/27/2016 15:30      38    50.8      9.20        78.6      81.7      52.9       5       9     116      58    1009    0.00
    05/27/2016 15:40      37    51.2      9.20        78.5      81.7      52.9       5       8     139     152    1008    0.00
    05/27/2016 15:50      39    51.1      9.20        78.4      81.7      52.9       5       9     118     136    1008    0.00
    05/27/2016 16:00      39    51.0      9.20        78.1      81.7      52.9       5      10     112      89    1009    0.00
    05/27/2016 16:10      39    50.9      9.20        77.9      81.7      52.9       5       9     101      89    1009    0.00
    05/27/2016 16:20      39    50.7      9.20        77.5      81.7      52.9       4      10      97     100    1009    0.00
    05/27/2016 16:30      39    51.0      9.20        77.7      81.7      52.9       3       9     159     129    1009    0.00
    05/27/2016 16:40      36    50.6      9.20        77.2      81.7      52.9       3       5     133      93    1009    0.00
    05/27/2016 16:50      34    47.6      9.20        77.6      81.7      52.9       2       7     228     238    1009    0.00
    05/27/2016 17:00      34    46.7      9.20        77.6      81.7      52.9       2       6     240     256    1009    0.00
    05/27/2016 17:10      34    46.3      9.20        77.3      81.7      52.9       3       8     254     247    1009    0.00
    05/27/2016 17:20      33    45.9      9.20        76.9      81.7      52.9       3       6     251     250    1009    0.00
    05/27/2016 17:30      33    45.5      9.20        76.3      81.7      52.9       2       5     229     227    1009    0.00
    05/27/2016 17:40      35    45.5      9.20        75.7      81.7      52.9       2       5     217     241    1009    0.00
    05/27/2016 17:50      45    49.6      9.20        75.1      81.7      52.9       3       6     125      86    1009    0.00
    05/27/2016 18:00      47    51.6      9.20        73.5      81.7      52.9       3       6      96     116    1009    0.00
    05/27/2016 18:10      49    51.5      9.20        72.5      81.7      52.9       4       9     103      83    1009    0.00
    05/27/2016 18:20      51    51.5      9.20        71.0      81.7      52.9       5       9      88     117    1009    0.00
    05/27/2016 18:30      53    51.6      9.20        70.2      81.7      52.9       4       8      85      74    1009    0.00
    05/27/2016 18:40      54    51.9      9.20        69.4      81.7      52.9       3       7     105      79    1009    0.00
    05/27/2016 18:50      56    51.9      9.20        68.3      81.7      52.9       2       5     105     101    1009    0.00
    05/27/2016 19:00      58    51.9      9.20        67.5      81.7      52.9       4       7      79      69    1010    0.00
    05/27/2016 19:10      60    51.8      9.20        66.7      81.7      52.9       4       9      76      83    1010    0.00
    05/27/2016 19:20      61    51.9      9.20        65.8      81.7      52.9       3       6      76      88    1010    0.00
    05/27/2016 19:30      64    51.9      9.20        64.8      81.7      52.9       4       9      60      44    1010    0.00
    05/27/2016 19:40      65    52.0      9.20        64.1      81.7      52.9       5      10      71      86    1010    0.00
    05/27/2016 19:50      67    52.0      9.20        63.5      81.7      52.9       5       8      72      85    1010    0.00
    05/27/2016 20:00      68    52.0      9.20        63.0      81.7      52.9       3       6      77      79    1010    0.00
    05/27/2016 20:10      69    52.0      9.20        62.6      81.7      52.9       3       7      83      98    1010    0.00
    05/27/2016 20:20      70    52.2      9.20        62.2      81.7      52.9       3       7      95      93    1010    0.00
    05/27/2016 20:30      72    52.2      9.20        61.8      81.7      52.9       2       5      94      82    1011    0.00
    05/27/2016 20:40      73    52.3      9.20        61.3      81.7      52.9       2       5      82     105    1011    0.00
    05/27/2016 20:50      74    52.4      9.20        60.9      81.7      52.9       3       6      93      93    1011    0.00
    05/27/2016 21:00      74    52.4      9.20        60.6      81.7      52.9       3       8      91     101    1011    0.00
    05/27/2016 21:10      76    52.1      9.20        60.0      81.7      52.9       4       7      95      67    1011    0.00
    05/27/2016 21:20      77    52.0      9.20        59.5      81.7      52.9       3       6      80      44    1011    0.00
    05/27/2016 21:30      78    52.0      9.20        59.1      81.7      52.9       4       7      68      72    1011    0.00
    05/27/2016 21:40      78    51.9      9.20        58.9      81.7      52.9       4       7      69      68    1011    0.00
    05/27/2016 21:50      78    51.8      9.20        58.6      81.7      52.9       3       6      66      74    1011    0.00
    05/27/2016 22:00      78    51.7      9.20        58.5      81.7      52.9       2       5      75      52    1011    0.00
    05/27/2016 22:10      78    51.7      9.20        58.4      81.7      52.9       2       4      66      58    1011    0.00
    05/27/2016 22:20      79    51.8      9.20        58.4      81.7      52.9       2       4      59      70    1011    0.00
    05/27/2016 22:30      78    51.8      9.20        58.4      81.7      52.9       2       5      63      60    1011    0.00
    05/27/2016 22:40      79    51.9      9.20        58.5      81.7      52.9       2       3      81      74    1010    0.00
    05/27/2016 22:50      78    51.8      9.20        58.5      81.7      52.9       1       3      73      74    1010    0.00
    05/27/2016 23:00      79    51.8      9.20        58.4      81.7      52.9       1       3      76      60    1010    0.00
    05/27/2016 23:10      79    51.8      9.20        58.3      81.7      52.9       1       3      87      79    1010    0.00
    05/27/2016 23:20      79    51.9      9.20        58.3      81.7      52.9       2       3     103      54    1010    0.00
    05/27/2016 23:30      80    51.5      9.20        57.8      81.7      52.9       0       2     139     148    1010    0.00
    05/27/2016 23:40      80    51.7      9.20        57.8      81.7      52.9       0       2      76      50    1011    0.00
    05/27/2016 23:50      80    51.7      9.20        57.9      81.7      52.9       0       2      77      90    1011    0.00
    05/28/2016 00:00      80    51.7      9.20        58.0      81.7      52.9       0       2      69      83    1010    0.00
    05/28/2016 00:10      79    51.7      9.20        58.0      58.1      57.9       0       2      77      68    1010    0.00
    05/28/2016 00:20      79    51.7      9.20        58.0      58.2      57.8       0       3      77      63    1010    0.00
    05/28/2016 00:30      79    51.7      9.20        58.1      58.3      57.8       1       3      79      93    1010    0.00
    05/28/2016 00:40      78    51.6      9.20        58.2      58.5      57.8       2       3      97      77    1010    0.00
    05/28/2016 00:50      78    51.6      9.20        58.4      58.6      57.8       1       3      76      90    1010    0.00
    05/28/2016 01:00      78    51.6      9.20        58.4      58.6      57.8       0       2     117      98    1010    0.00
    05/28/2016 01:10      79    51.8      9.20        58.4      58.6      57.8       2       6     118      72    1010    0.00
    05/28/2016 01:20      80    51.9      9.20        58.2      58.6      57.8       0       3      42      59    1010    0.00
    05/28/2016 01:30      80    51.9      9.20        58.1      58.6      57.8       0       3      93     152    1010    0.00
    05/28/2016 01:40      80    52.1      9.20        58.2      58.6      57.8       1       3      74      92    1009    0.00
    05/28/2016 01:50      80    51.9      9.20        58.0      58.6      57.7       0       1     334     355    1009    0.00
    05/28/2016 02:00      81    52.0      9.20        57.9      58.6      57.7       0       2     313     347    1009    0.00
    05/28/2016 02:10      81    52.1      9.20        57.8      58.6      57.7       1       3     102      91    1009    0.00
    05/28/2016 02:20      81    52.1      9.20        57.8      58.6      57.7       0       1     130     128    1009    0.00
    05/28/2016 02:30      82    52.2      9.20        57.7      58.6      57.5       0       2     184     169    1009    0.00
    05/28/2016 02:40      82    52.2      9.20        57.8      58.6      57.5       0       2      77     118    1009    0.00
    05/28/2016 02:50      82    52.2      9.20        57.8      58.6      57.5       2       4     159     171    1009    0.00
    05/28/2016 03:00      82    52.2      9.20        57.7      58.6      57.5       1       3     143     159    1009    0.00
    05/28/2016 03:10      82    52.3      9.20        57.8      58.6      57.5       1       5     129     145    1009    0.00
    05/28/2016 03:20      82    52.1      9.20        57.7      58.6      57.4       2       4     162     155    1009    0.00
    05/28/2016 03:30      82    52.0      9.20        57.4      58.6      57.2       0       0     211     188    1009    0.00
    05/28/2016 03:40      83    52.1      9.20        57.4      58.6      57.2       0       2     196     208    1009    0.00
    05/28/2016 03:50      83    52.3      9.20        57.5      58.6      57.2       0       3     190     160    1009    0.00
    05/28/2016 04:00      83    52.3      9.20        57.5      58.6      57.2       0       3     112      84    1009    0.00
    05/28/2016 04:10      82    52.4      9.20        57.8      58.6      57.2       2       5      61      67    1009    0.00
    05/28/2016 04:20      82    52.2      9.20        57.7      58.6      57.2       0       4      67      91    1009    0.00
    05/28/2016 04:30      83    52.2      9.20        57.5      58.6      57.2       0       3     352       7    1009    0.00
    05/28/2016 04:40      83    52.5      9.20        57.7      58.6      57.2       1       3     144     137    1010    0.00
    05/28/2016 04:50      83    52.5      9.20        57.8      58.6      57.2       2       3     142     122    1010    0.00
    05/28/2016 05:00      82    52.4      9.20        57.7      58.6      57.2       2       4     102      67    1010    0.00
    05/28/2016 05:10      81    52.3      9.20        57.8      58.6      57.2       1       4      94     106    1010    0.00
    05/28/2016 05:20      81    52.2      9.20        57.9      58.6      57.2       1       3     119     135    1010    0.00
    05/28/2016 05:30      81    52.2      9.20        58.1      58.6      57.2       0       2      99     191    1010    0.00
    05/28/2016 05:40      80    52.2      9.20        58.3      58.6      57.2       1       3     105      85    1010    0.00
    05/28/2016 05:50      80    52.3      9.20        58.3      58.6      57.2       0       3     101      85    1010    0.00
    05/28/2016 06:00      80    52.3      9.20        58.5      58.6      57.2       0       3      37      36    1010    0.00
    05/28/2016 06:10      80    52.3      9.20        58.5      58.6      57.2       3       7      39      41    1010    0.00
    05/28/2016 06:20      80    52.3      9.20        58.4      58.6      57.2       2       6      39      35    1010    0.00
    05/28/2016 06:30      79    52.4      9.20        58.6      58.9      57.2       1       4      41      34    1010    0.00
    05/28/2016 06:40      79    52.4      9.20        58.9      59.1      57.2       2       5      82      99    1011    0.00
    05/28/2016 06:50      78    52.4      9.20        59.1      59.5      57.2       1       4      89      96    1011    0.00
    05/28/2016 07:00      76    52.4      9.20        59.5      59.8      57.2       2       5      83      46    1011    0.00
    05/28/2016 07:10      76    52.2      9.20        59.6      59.8      57.2       2       5      52      66    1011    0.00
    05/28/2016 07:20      77    52.1      9.20        59.5      59.8      57.2       2       6      53      65    1011    0.00
    05/28/2016 07:30      76    52.2      9.20        59.7      59.9      57.2       2       4      50      39    1011    0.00
    05/28/2016 07:40      75    52.2      9.20        60.0      60.2      57.2       2       5      61      71    1011    0.00
    05/28/2016 07:50      74    52.0      9.20        60.0      60.2      57.2       2       6      19      53    1011    0.00
    05/28/2016 08:00      73    52.1      9.20        60.4      60.7      57.2       0       4      50      80    1011    0.00
    05/28/2016 08:10      72    52.3      9.20        61.1      61.7      57.2       0       4      84      55    1011    0.00
    05/28/2016 08:20      71    52.1      9.20        61.7      62.1      57.2       3       6      81      71    1011    0.00
    05/28/2016 08:30      71    52.2      9.20        61.8      62.4      57.2       2       6      95      96    1011    0.00
    05/28/2016 08:40      68    52.3      9.20        62.6      63.0      57.2       2       4     116     115    1011    0.00
    05/28/2016 08:50      66    52.2      9.20        63.2      63.6      57.2       3       6      99     129    1011    0.00
    05/28/2016 09:00      66    52.0      9.20        63.5      63.9      57.2       3       5      96      88    1011    0.00
    05/28/2016 09:10      63    52.5      9.20        64.1      65.3      57.2       2       7     146     175    1011    0.00
    05/28/2016 09:20      62    52.0      9.20        65.1      65.5      57.2       2       6     110      89    1011    0.00
    05/28/2016 09:30      62    52.4      9.20        65.4      66.3      57.2       3       6     141     177    1011    0.00
    05/28/2016 09:40      60    52.0      9.20        66.6      67.1      57.2       3       7     105      77    1011    0.00
    05/28/2016 09:50      61    52.3      9.20        66.5      67.5      57.2       3       7     146     161    1011    0.00
    05/28/2016 10:00      58    52.1      9.20        67.3      67.7      57.2       4       8      91      95    1011    0.00
    05/28/2016 10:10      56    51.9      9.20        67.1      68.0      57.2       3       6     116     145    1011    0.00
    05/28/2016 10:20      55    51.9      9.20        67.7      68.7      57.2       2       7     135     139    1011    0.00
    05/28/2016 10:30      56    51.7      9.20        68.1      68.8      57.2       3       6      87      85    1011    0.00
    05/28/2016 10:40      55    51.9      9.20        68.2      68.8      57.2       4       8      82     112    1011    0.00
    05/28/2016 10:50      56    52.1      9.20        68.4      68.8      57.2       2       6     136     158    1011    0.00
    05/28/2016 11:00      52    52.0      9.20        69.5      70.4      57.2       3       8     122     137    1011    0.00
    05/28/2016 11:10      50    52.0      9.20        70.7      71.1      57.2       4       9     122     148    1011    0.00
    05/28/2016 11:20      51    51.4      9.20        70.2      71.1      57.2       3       8     106      54    1011    0.00
    05/28/2016 11:30      49    51.9      9.20        71.0      72.4      57.2       4       8     112     151    1011    0.00
    05/28/2016 11:40      49    51.2      9.20        71.7      72.4      57.2       3       8     100     145    1011    0.00
    05/28/2016 11:50      50    51.5      9.20        71.4      72.4      57.2       4       9      75      53    1011    0.00
    05/28/2016 12:00      49    51.4      9.20        71.9      72.5      57.2       4       8      89      87    1011    0.00
    05/28/2016 12:10      45    51.5      9.20        72.7      73.9      57.2       3       8     104      86    1011    0.00
    05/28/2016 12:20      44    50.5      9.20        73.5      74.1      57.2       2       5     188     193    1011    0.00
    05/28/2016 12:30      42    50.4      9.20        73.9      75.0      57.2       2       6     150      90    1010    0.00
    05/28/2016 12:40      43    50.8      9.20        74.4      75.0      57.2       3       8     116      77    1010    0.00
    05/28/2016 12:50      46    50.8      9.20        75.0      75.5      57.2       3      10     106     103    1010    0.00
    05/28/2016 13:00      41    51.5      9.20        75.6      76.3      57.2       4      10     146     153    1010    0.00
    05/28/2016 13:10      42    51.6      9.20        75.8      76.5      57.2       5       9     151      90    1010    0.00
    05/28/2016 13:20      42    50.3      9.20        75.8      76.5      57.2       3       6      93     138    1010    0.00
    05/28/2016 13:30      41    50.3      9.20        76.0      76.7      57.2       3       8      54     352    1010    0.00
    05/28/2016 13:40      39    50.9      9.20        77.3      78.3      57.2       3       7     130     166    1010    0.00
    05/28/2016 13:50      39    50.6      9.20        78.1      78.8      57.2       4       9     139     152    1010    0.00
    05/28/2016 14:00      38    50.6      9.20        77.0      78.8      57.2       4       9     133     185    1009    0.00
    05/28/2016 14:10      42    51.2      9.20        77.1      78.8      57.2       5      11     134     156    1009    0.00
    05/28/2016 14:20      42    52.1      9.20        77.2      78.8      57.2       6      12     126      92    1009    0.00
    05/28/2016 14:30      41    52.3      9.20        77.1      78.8      57.2       5      12     123     170    1009    0.00
    05/28/2016 14:40      42    52.1      9.20        77.1      78.8      57.2       5      12     124     132    1009    0.00
    05/28/2016 14:50      42    51.8      9.20        76.2      78.8      57.2       5      10     102      89    1009    0.00
    05/28/2016 15:00      43    51.9      9.20        76.9      78.8      57.2       5      11     132     137    1009    0.00
    05/28/2016 15:10      42    52.1      9.20        76.6      78.8      57.2       7      12     128      99    1009    0.00
    05/28/2016 15:20      43    51.6      9.20        76.7      78.8      57.2       4      11     102     154    1009    0.00
    05/28/2016 15:30      42    51.7      9.20        76.1      78.8      57.2       5      10     110      79    1009    0.00
    05/28/2016 15:40      44    51.6      9.20        75.7      78.8      57.2       4       9     111      78    1009    0.00
    05/28/2016 15:50      44    51.8      9.20        75.4      78.8      57.2       5      10     102      84    1009    0.00
    05/28/2016 16:00      44    51.7      9.20        75.0      78.8      57.2       5      10     110      87    1009    0.00
    05/28/2016 16:10      43    51.6      9.20        75.2      78.8      57.2       4       8     109      80    1009    0.00
    05/28/2016 16:20      45    51.6      9.20        74.2      78.8      57.2       5      10      99      75    1009    0.00
    05/28/2016 16:30      45    51.7      9.20        74.8      78.8      57.2       4      11      99      73    1009    0.00